Time;durP1;ratioP1;P1;durP2;ratioP2;P2;SDS_P1;SDS_P2;PMS_P1;PMS_P2;Temp;Humidity;BMP_temperature;BMP_pressure;BME280_temperature;BME280_humidity;BME280_pressure;Samples;Min_cycle;Max_cycle;Signal;HPM_P1;HPM_P2
2020/12/05 00:02:26;;;;;;;13.75;8.07;;;4.80;89.90;;;5.30;73.03;98132.53;4973085;28;20066;-82
2020/12/05 00:04:53;;;;;;;14.55;8.73;;;4.80;89.80;;;5.31;72.67;98130.66;4971923;28;20043;-82
2020/12/05 00:07:19;;;;;;;13.73;8.23;;;4.80;89.90;;;5.27;72.98;98130.22;4972099;28;20102;-82
2020/12/05 00:09:46;;;;;;;14.80;8.07;;;4.80;89.80;;;5.25;73.13;98129.59;4971869;28;20105;-82
2020/12/05 00:12:13;;;;;;;12.82;8.30;;;4.80;89.90;;;5.24;73.15;98122.56;4971876;28;20047;-82
2020/12/05 00:14:40;;;;;;;13.60;8.10;;;4.80;90.00;;;5.25;73.06;98135.00;4971284;28;20035;-82
2020/12/05 00:17:08;;;;;;;12.38;7.97;;;4.80;90.00;;;5.24;73.14;98134.19;4971869;28;20050;-81
2020/12/05 00:19:35;;;;;;;11.13;7.38;;;4.80;90.00;;;5.20;73.79;98140.22;4971629;28;20046;-82
2020/12/05 00:22:02;;;;;;;15.80;7.55;;;4.80;90.10;;;5.24;73.72;98138.75;4972051;28;20046;-81
2020/12/05 00:24:29;;;;;;;12.57;7.60;;;4.80;90.50;;;5.30;73.43;98146.00;4971363;28;20440;-82
2020/12/05 00:26:55;;;;;;;12.38;7.85;;;4.80;90.60;;;5.28;73.89;98148.06;4971711;28;20458;-82
2020/12/05 00:29:22;;;;;;;13.80;7.32;;;4.90;90.80;;;5.28;73.96;98153.47;4970329;28;20773;-82
2020/12/05 00:31:51;;;;;;;11.43;7.07;;;4.90;91.00;;;5.29;73.96;98152.41;4971480;28;20047;-82
2020/12/05 00:34:20;;;;;;;11.57;6.90;;;4.90;91.00;;;5.26;74.42;98156.38;4969814;28;20074;-82
2020/12/05 00:36:47;;;;;;;13.20;7.97;;;4.90;91.10;;;5.24;74.46;98152.25;4971524;28;20659;-82
2020/12/05 00:39:13;;;;;;;11.25;6.95;;;4.90;91.00;;;5.23;74.98;98151.38;4970008;28;20055;-82
2020/12/05 00:41:40;;;;;;;13.13;7.00;;;5.00;91.10;;;5.28;74.69;98154.28;4971751;28;20042;-82
2020/12/05 00:44:07;;;;;;;11.77;7.22;;;4.90;91.00;;;5.28;74.89;98148.91;4971354;28;20081;-82
2020/12/05 00:46:34;;;;;;;11.98;6.88;;;5.00;91.10;;;5.32;75.21;98148.50;4971689;28;20035;-82
2020/12/05 00:49:01;;;;;;;10.38;6.93;;;5.00;91.30;;;5.32;74.96;98138.53;4971948;28;20101;-82
2020/12/05 00:51:29;;;;;;;11.90;7.25;;;5.00;91.30;;;5.31;75.04;98139.56;4970156;28;20693;-82
2020/12/05 00:53:56;;;;;;;13.05;7.20;;;5.00;91.30;;;5.34;74.86;98143.72;4969588;28;20047;-82
2020/12/05 00:56:23;;;;;;;10.15;6.65;;;5.00;91.20;;;5.33;74.94;98134.81;4970364;28;20137;-82
2020/12/05 00:58:50;;;;;;;9.80;6.60;;;5.00;91.30;;;5.28;74.98;98131.91;4972729;28;20411;-82
2020/12/05 01:01:17;;;;;;;12.02;7.00;;;5.10;91.20;;;5.29;75.19;98138.94;4975514;28;20101;-82
2020/12/05 01:03:44;;;;;;;11.32;6.80;;;5.10;91.30;;;5.29;75.46;98138.94;4974896;28;20043;-82
2020/12/05 01:06:12;;;;;;;10.82;6.88;;;5.10;91.20;;;5.30;75.47;98135.22;4975161;28;20042;-81
2020/12/05 01:08:41;;;;;;;13.18;7.85;;;5.10;91.40;;;5.35;75.00;98132.72;4975302;28;20054;-82
2020/12/05 01:11:14;;;;;;;12.15;7.20;;;5.10;91.50;;;5.37;75.34;98125.25;4974607;28;20101;-82
2020/12/05 01:13:41;;;;;;;9.73;6.45;;;5.10;91.60;;;5.34;75.13;98133.75;4974202;28;20043;-82
2020/12/05 01:16:11;;;;;;;11.07;6.32;;;5.10;91.40;;;5.30;75.11;98143.31;4974762;28;20077;-81
2020/12/05 01:18:38;;;;;;;11.80;7.03;;;5.10;91.30;;;5.29;75.21;98137.09;4974930;28;20416;-82
2020/12/05 01:21:08;;;;;;;9.60;6.40;;;5.10;91.20;;;5.30;75.15;98146.00;4958771;28;20054;-82
2020/12/05 01:23:36;;;;;;;12.90;6.25;;;5.10;91.40;;;5.30;75.17;98146.00;4954992;28;20508;-82
2020/12/05 01:26:04;;;;;;;10.60;6.20;;;5.10;91.30;;;5.34;74.98;98151.81;4955092;28;20126;-81
2020/12/05 01:28:31;;;;;;;9.43;6.20;;;5.10;91.30;;;5.28;75.16;98157.00;4953613;28;20051;-82
2020/12/05 01:30:58;;;;;;;14.52;6.20;;;5.10;91.20;;;5.32;75.18;98168.19;4955500;28;20511;-82
2020/12/05 01:33:25;;;;;;;11.95;6.32;;;5.10;91.20;;;5.28;75.13;98169.66;4954829;28;20046;-82
2020/12/05 01:35:52;;;;;;;9.88;6.20;;;5.10;91.20;;;5.29;75.65;98179.38;4955519;28;20058;-82
2020/12/05 01:38:19;;;;;;;10.98;7.13;;;5.10;91.30;;;5.29;75.24;98176.69;4954933;28;20071;-82
2020/12/05 01:40:52;;;;;;;13.10;7.38;;;5.10;91.40;;;5.32;75.45;98170.06;4954985;28;20516;-81
2020/12/05 01:43:21;;;;;;;10.48;7.05;;;5.10;91.60;;;5.30;75.40;98181.06;4954978;28;20082;-81
2020/12/05 01:45:48;;;;;;;12.85;7.32;;;5.10;91.50;;;5.31;75.58;98184.56;4955053;28;20070;-82
2020/12/05 01:48:17;;;;;;;10.63;7.20;;;5.10;91.50;;;5.31;75.42;98193.50;4954710;28;20079;-82
2020/12/05 01:50:44;;;;;;;13.85;7.55;;;5.10;91.50;;;5.33;75.42;98194.13;4955331;28;20070;-81
2020/12/05 01:53:12;;;;;;;13.90;7.78;;;5.20;91.60;;;5.35;75.28;98192.06;4955156;28;20078;-82
2020/12/05 01:55:41;;;;;;;14.18;7.97;;;5.10;91.70;;;5.32;75.41;98188.94;4955139;28;20074;-81
2020/12/05 01:58:08;;;;;;;13.52;8.30;;;5.10;91.70;;;5.32;75.79;98187.06;4955024;28;20909;-81
2020/12/05 02:00:35;;;;;;;13.48;8.40;;;5.30;92.00;;;5.35;76.25;98186.66;4954647;28;20043;-81
2020/12/05 02:03:02;;;;;;;14.57;8.25;;;5.20;91.90;;;5.38;75.97;98186.22;4954604;28;20075;-82
2020/12/05 02:05:44;;;;;;;13.63;8.30;;;5.20;91.90;;;5.39;76.11;98187.91;4954465;28;20089;-82
2020/12/05 02:08:16;;;;;;;11.82;7.57;;;5.20;91.90;;;5.34;76.49;98184.19;4954443;28;20134;-82
2020/12/05 02:10:49;;;;;;;12.75;8.07;;;5.20;91.90;;;5.35;76.43;98197.47;4954398;28;20078;-81
2020/12/05 02:13:26;;;;;;;13.80;7.88;;;5.30;92.10;;;5.37;76.43;98197.22;4954640;28;20738;-81
2020/12/05 02:15:56;;;;;;;13.43;7.60;;;5.30;92.10;;;5.36;76.56;98199.09;4954528;28;20046;-82
2020/12/05 02:18:24;;;;;;;16.63;8.80;;;5.30;92.40;;;5.41;76.71;98210.09;4954341;28;20044;-81
2020/12/05 02:20:53;;;;;;;16.88;8.63;;;5.30;92.50;;;5.39;76.92;98198.69;4954440;28;20428;-82
2020/12/05 02:23:21;;;;;;;14.73;8.35;;;5.30;92.40;;;5.43;77.07;98202.63;4954236;28;20504;-82
2020/12/05 02:25:53;;;;;;;14.80;8.52;;;5.30;92.60;;;5.42;76.88;98203.66;4953901;28;20051;-82
2020/12/05 02:28:20;;;;;;;15.05;8.13;;;5.40;92.80;;;5.43;77.21;98204.50;4954295;28;20121;-82
2020/12/05 02:30:48;;;;;;;15.30;8.25;;;5.40;92.60;;;5.43;77.21;98207.19;4954319;28;20082;-82
2020/12/05 02:33:15;;;;;;;13.93;8.60;;;5.40;92.50;;;5.41;77.26;98207.41;4953677;28;20078;-82
2020/12/05 02:35:42;;;;;;;15.02;7.60;;;5.40;92.50;;;5.41;77.28;98218.19;4953838;28;20500;-82
2020/12/05 02:38:18;;;;;;;13.38;8.52;;;5.40;92.30;;;5.44;77.40;98217.75;4954137;28;20074;-82
2020/12/05 02:40:46;;;;;;;14.88;8.02;;;5.40;92.20;;;5.45;77.23;98221.31;4953813;28;20503;-82
2020/12/05 02:43:13;;;;;;;12.55;7.60;;;5.50;92.40;;;5.48;77.28;98221.72;4953719;28;20039;-82
2020/12/05 02:45:40;;;;;;;14.40;7.88;;;5.50;92.60;;;5.49;76.88;98231.47;4952327;29;20158;-82
2020/12/05 02:48:07;;;;;;;12.70;7.70;;;5.50;92.60;;;5.48;77.40;98228.97;4953787;28;20476;-82
2020/12/05 02:50:34;;;;;;;13.52;8.45;;;5.50;92.50;;;5.52;77.35;98234.78;4953631;28;20110;-82
2020/12/05 02:53:01;;;;;;;15.30;8.98;;;5.50;92.50;;;5.53;77.42;98225.66;4953410;28;20102;-82
2020/12/05 02:55:28;;;;;;;14.40;8.82;;;5.50;92.10;;;5.53;77.05;98221.09;4953518;28;20484;-82
2020/12/05 02:57:56;;;;;;;13.48;8.07;;;5.60;92.10;;;5.56;76.70;98219.81;4958705;28;20074;-82
2020/12/05 03:00:23;;;;;;;12.27;8.57;;;5.70;92.20;;;5.58;76.71;98220.44;4966398;28;20070;-82
2020/12/05 03:02:50;;;;;;;16.02;9.13;;;5.60;92.10;;;5.59;76.55;98220.25;4967507;28;20051;-81
2020/12/05 03:05:17;;;;;;;13.25;8.60;;;5.60;91.90;;;5.63;76.60;98231.44;4970930;28;20043;-82
2020/12/05 03:07:45;;;;;;;14.23;8.43;;;5.60;91.70;;;5.60;76.28;98219.22;4972643;28;20085;-81
2020/12/05 03:10:14;;;;;;;13.30;8.60;;;5.60;91.80;;;5.63;76.61;98221.47;4972633;28;20459;-82
2020/12/05 03:12:40;;;;;;;16.23;8.38;;;5.60;91.60;;;5.65;76.55;98213.19;4972785;28;20075;-82
2020/12/05 03:15:08;;;;;;;17.88;8.75;;;5.60;91.60;;;5.62;76.90;98214.44;4971315;28;20082;-82
2020/12/05 03:17:35;;;;;;;14.48;9.15;;;5.70;91.80;;;5.63;76.75;98217.97;4972361;28;20075;-82
2020/12/05 03:20:02;;;;;;;16.15;8.65;;;5.60;91.70;;;5.66;76.86;98225.66;4972492;28;20051;-82
2020/12/05 03:22:29;;;;;;;15.23;9.15;;;5.70;92.00;;;5.67;76.96;98216.50;4971754;28;20098;-82
2020/12/05 03:24:56;;;;;;;13.95;9.00;;;5.70;92.00;;;5.66;76.88;98215.69;4970590;28;20051;-81
2020/12/05 03:27:23;;;;;;;15.85;9.90;;;5.70;92.10;;;5.68;77.11;98215.47;4972402;28;20395;-82
2020/12/05 03:29:51;;;;;;;17.17;9.98;;;5.70;91.90;;;5.70;76.91;98221.47;4968042;28;20432;-82
2020/12/05 03:32:21;;;;;;;16.50;10.40;;;5.70;92.10;;;5.70;77.46;98229.56;4964953;28;20129;-81
2020/12/05 03:34:48;;;;;;;18.17;10.05;;;5.70;92.10;;;5.70;76.98;98232.28;4972130;28;20035;-82
2020/12/05 03:37:16;;;;;;;17.75;10.48;;;5.70;92.10;;;5.69;77.38;98227.91;4972471;28;20078;-82
2020/12/05 03:39:43;;;;;;;17.30;10.10;;;5.70;92.10;;;5.74;77.33;98227.28;4971585;28;20153;-82
2020/12/05 03:42:09;;;;;;;19.35;9.30;;;5.70;92.20;;;5.76;77.15;98228.72;4972670;28;20055;-82
2020/12/05 03:44:36;;;;;;;14.45;8.40;;;5.70;92.30;;;5.74;77.39;98230.81;4972105;28;20078;-82
2020/12/05 03:47:03;;;;;;;13.02;8.90;;;5.70;92.40;;;5.75;76.97;98223.53;4972413;28;20074;-82
2020/12/05 03:49:32;;;;;;;15.70;9.10;;;5.70;92.30;;;5.72;77.27;98226.69;4972383;28;20133;-82
2020/12/05 03:51:59;;;;;;;14.07;8.48;;;5.70;92.20;;;5.67;77.47;98232.69;4972492;28;20047;-82
2020/12/05 03:54:27;;;;;;;17.67;8.52;;;5.80;92.20;;;5.66;77.68;98234.56;4970739;28;20053;-82
2020/12/05 03:56:53;;;;;;;12.63;7.47;;;5.70;92.20;;;5.68;77.49;98240.56;4972049;28;20128;-82
2020/12/05 03:59:20;;;;;;;13.27;8.23;;;5.80;92.30;;;5.72;77.40;98250.97;4972051;28;20452;-82
2020/12/05 04:01:47;;;;;;;11.75;8.00;;;5.70;92.30;;;5.73;77.08;98247.22;4972013;28;20085;-82
2020/12/05 04:04:14;;;;;;;13.40;7.88;;;5.70;92.30;;;5.68;77.58;98253.25;4972005;28;20454;-82
2020/12/05 04:06:42;;;;;;;12.35;8.20;;;5.70;92.40;;;5.70;77.61;98259.25;4972393;28;20077;-82
2020/12/05 04:09:08;;;;;;;12.40;8.15;;;5.70;92.40;;;5.68;77.58;98264.03;4972177;28;20066;-82
2020/12/05 04:11:38;;;;;;;13.35;8.68;;;5.70;92.60;;;5.69;77.68;98263.00;4971764;28;20055;-82
2020/12/05 04:14:05;;;;;;;13.90;8.23;;;5.70;92.70;;;5.68;77.22;98262.16;4971671;28;20042;-82
2020/12/05 04:16:32;;;;;;;14.57;8.27;;;5.90;93.00;;;5.72;77.36;98261.75;4972063;28;20559;-82
2020/12/05 04:18:58;;;;;;;13.95;8.80;;;5.60;92.70;;;5.71;77.26;98257.38;4971723;28;20051;-82
2020/12/05 04:21:25;;;;;;;13.88;8.35;;;5.70;92.90;;;5.70;77.47;98264.66;4971908;28;20046;-82
2020/12/05 04:23:53;;;;;;;15.77;8.20;;;5.90;93.10;;;5.73;77.45;98272.34;4971601;28;20043;-82
2020/12/05 04:26:20;;;;;;;12.25;8.15;;;5.60;93.00;;;5.72;77.73;98270.69;4971990;28;20046;-82
2020/12/05 04:28:47;;;;;;;13.80;8.60;;;5.60;93.20;;;5.73;78.06;98279.59;4972194;28;20081;-82
2020/12/05 04:31:14;;;;;;;14.77;9.15;;;5.70;93.40;;;5.76;78.04;98265.69;4972031;28;20097;-82
2020/12/05 04:33:41;;;;;;;14.95;9.30;;;5.70;93.60;;;5.78;77.64;98271.72;4970932;28;20045;-82
2020/12/05 04:36:08;;;;;;;19.38;9.07;;;5.90;93.70;;;5.74;78.02;98265.91;4975616;28;20093;-82
2020/12/05 04:38:35;;;;;;;17.23;9.68;;;5.70;93.70;;;5.75;78.40;98267.56;4975806;28;20079;-82
2020/12/05 04:41:03;;;;;;;15.10;9.80;;;5.70;93.80;;;5.74;78.19;98265.91;4976089;28;20290;-82
2020/12/05 04:43:30;;;;;;;15.10;9.85;;;5.70;93.90;;;5.75;78.52;98259.47;4975694;28;20073;-82
2020/12/05 04:45:57;;;;;;;16.73;9.95;;;5.70;94.00;;;5.76;78.81;98269.22;4976013;28;20530;-82
2020/12/05 04:48:26;;;;;;;18.17;10.13;;;5.80;94.00;;;5.76;78.71;98274.63;4975711;28;20042;-82
2020/12/05 04:50:55;;;;;;;17.27;10.60;;;5.80;93.90;;;5.76;79.07;98277.31;4975375;28;20074;-81
2020/12/05 04:53:23;;;;;;;20.85;11.32;;;5.80;94.10;;;5.74;78.92;98276.69;4975425;28;20062;-82
2020/12/05 04:55:52;;;;;;;17.20;10.60;;;5.80;94.20;;;5.78;79.28;98280.63;4975429;28;20078;-82
2020/12/05 04:58:22;;;;;;;17.02;10.85;;;5.80;94.20;;;5.78;79.04;98286.03;4975580;28;20051;-82
2020/12/05 05:00:53;;;;;;;17.17;10.80;;;5.80;94.10;;;5.78;78.70;98288.72;4975862;28;20495;-82
2020/12/05 05:03:23;;;;;;;18.45;11.80;;;5.80;94.30;;;5.83;79.01;98294.34;4975122;28;20047;-81
2020/12/05 05:05:51;;;;;;;16.98;11.02;;;5.80;94.10;;;5.79;78.68;98301.19;4975400;28;20499;-82
2020/12/05 05:08:18;;;;;;;19.10;10.25;;;5.80;94.10;;;5.81;79.04;98292.91;4975940;28;20097;-82
2020/12/05 05:10:45;;;;;;;16.60;10.82;;;5.80;94.10;;;5.83;78.89;98293.50;4975172;28;20070;-82
2020/12/05 05:13:16;;;;;;;17.80;11.00;;;5.80;94.00;;;5.81;78.79;98299.13;4974953;28;20047;-82
2020/12/05 05:15:44;;;;;;;19.73;11.85;;;5.80;94.00;;;5.81;79.07;98293.72;4974747;28;20101;-82
2020/12/05 05:18:12;;;;;;;16.88;10.55;;;5.80;94.10;;;5.83;78.61;98293.50;4975074;28;20052;-82
2020/12/05 05:20:42;;;;;;;14.73;9.27;;;5.80;94.10;;;5.85;78.82;98294.97;4974808;28;20051;-82
2020/12/05 05:23:15;;;;;;;16.00;9.40;;;6.10;94.10;;;5.80;78.67;98291.22;4973632;28;20043;-82
2020/12/05 05:25:54;;;;;;;14.30;9.48;;;5.80;93.80;;;5.81;78.11;98293.72;4974945;28;20078;-82
2020/12/05 05:28:25;;;;;;;15.20;9.27;;;5.80;93.70;;;5.83;78.47;98307.84;4974876;28;20051;-82
2020/12/05 05:31:07;;;;;;;13.15;8.85;;;5.80;93.70;;;5.81;78.37;98301.81;4974999;28;20062;-82
2020/12/05 05:33:42;;;;;;;19.00;9.85;;;5.80;93.70;;;5.83;78.58;98297.03;4971536;28;20053;-82
2020/12/05 05:36:19;;;;;;;18.17;10.63;;;5.80;93.90;;;5.85;78.36;98305.75;4974889;28;20082;-82
2020/12/05 05:38:57;;;;;;;16.27;10.50;;;5.80;93.90;;;5.83;78.88;98299.75;4974856;28;20105;-82
2020/12/05 05:41:25;;;;;;;18.83;11.52;;;5.80;94.00;;;5.84;78.58;98303.25;4973384;28;20047;-82
2020/12/05 05:43:58;;;;;;;19.75;11.88;;;5.80;94.00;;;5.84;78.82;98303.25;4974008;28;20051;-82
2020/12/05 05:46:28;;;;;;;21.88;12.13;;;5.90;94.10;;;5.84;78.53;98309.47;4974832;28;20046;-82
2020/12/05 05:48:57;;;;;;;21.48;12.63;;;5.80;94.20;;;5.84;79.10;98320.28;4974854;28;20491;-82
2020/12/05 05:51:44;;;;;;;22.45;13.18;;;5.90;94.30;;;5.85;79.11;98321.94;4974611;28;20054;-82
2020/12/05 05:54:19;;;;;;;22.45;13.38;;;5.90;94.50;;;5.81;79.46;98319.88;4974203;28;20103;-82
2020/12/05 05:57:08;;;;;;;22.88;13.25;;;5.80;94.50;;;5.84;79.73;98319.44;4974518;28;20081;-82
2020/12/05 05:59:37;;;;;;;26.70;14.32;;;6.00;94.60;;;5.88;79.22;98321.53;4974395;28;20043;-82
2020/12/05 06:02:07;;;;;;;24.95;15.13;;;5.90;94.60;;;5.87;79.54;98325.28;4974317;28;20073;-82
2020/12/05 06:04:38;;;;;;;25.08;14.20;;;5.90;94.60;;;5.90;79.40;98334.81;4973642;28;20074;-81
2020/12/05 06:07:07;;;;;;;24.38;14.98;;;5.90;94.60;;;5.91;79.26;98341.88;4974007;28;20502;-82
2020/12/05 06:09:48;;;;;;;28.02;15.43;;;6.00;94.50;;;5.93;79.50;98350.59;4974424;28;20098;-82
2020/12/05 06:12:20;;;;;;;23.33;13.43;;;6.00;94.50;;;5.95;79.55;98355.81;4974161;28;20046;-82
2020/12/05 06:14:48;;;;;;;29.27;16.23;;;6.00;94.50;;;5.94;79.14;98352.28;4973540;28;20074;-81
2020/12/05 06:17:19;;;;;;;31.80;15.52;;;6.00;94.40;;;5.98;79.49;98352.72;4973767;28;20098;-82
2020/12/05 06:19:48;;;;;;;25.77;15.02;;;6.00;94.40;;;5.99;79.34;98362.47;4973546;28;20451;-81
2020/12/05 06:22:34;;;;;;;29.83;16.08;;;6.00;94.40;;;6.00;79.28;98364.16;4974001;28;20454;-82
2020/12/05 06:25:06;;;;;;;25.10;15.32;;;6.10;94.40;;;6.05;78.92;98367.03;4973453;28;20047;-82
2020/12/05 06:27:40;;;;;;;24.58;14.77;;;6.10;94.40;;;6.03;78.92;98363.72;4973743;28;20055;-82
2020/12/05 06:30:08;;;;;;;26.27;16.20;;;6.10;94.20;;;6.02;78.73;98370.16;4973748;28;20459;-82
2020/12/05 06:32:45;;;;;;;28.73;16.58;;;6.10;94.30;;;6.02;79.04;98386.38;4973814;28;20090;-82
2020/12/05 06:35:36;;;;;;;27.42;16.48;;;6.10;94.30;;;6.00;79.06;98397.38;4973723;28;20075;-82
2020/12/05 06:38:04;;;;;;;29.77;17.40;;;6.10;94.10;;;6.04;79.06;98403.19;4958979;28;20073;-82
2020/12/05 06:40:40;;;;;;;29.02;17.45;;;6.10;94.20;;;6.06;79.15;98414.59;4973561;28;20054;-82
2020/12/05 06:43:13;;;;;;;29.73;17.13;;;6.20;94.20;;;6.09;79.10;98418.75;4973314;28;20057;-81
2020/12/05 06:45:42;;;;;;;29.67;18.08;;;6.20;94.30;;;6.12;79.14;98423.75;4973520;28;20043;-82
2020/12/05 06:48:33;;;;;;;28.10;16.83;;;6.10;94.10;;;6.11;78.80;98431.03;4972147;28;20109;-81
2020/12/05 06:51:00;;;;;;;27.97;17.43;;;6.20;94.00;;;6.10;79.33;98436.63;4973305;28;20039;-82
2020/12/05 06:53:33;;;;;;;32.83;18.05;;;6.20;93.90;;;6.11;78.87;98444.53;4975163;28;20321;-80
2020/12/05 06:56:01;;;;;;;33.38;17.95;;;6.20;93.90;;;6.13;78.87;98445.16;4979974;28;20458;-79
2020/12/05 06:58:29;;;;;;;29.45;17.40;;;6.20;93.90;;;6.10;79.20;98455.53;4975335;28;20043;-80
2020/12/05 07:00:57;;;;;;;30.13;17.92;;;6.20;93.70;;;6.11;78.78;98451.78;4975273;28;20074;-80
2020/12/05 07:03:27;;;;;;;32.33;17.08;;;6.20;93.80;;;6.09;78.89;98457.38;4974603;28;20067;-80
2020/12/05 07:05:56;;;;;;;31.98;18.88;;;6.20;93.80;;;6.07;78.50;98463.00;4974286;28;20477;-80
2020/12/05 07:08:41;;;;;;;30.52;17.75;;;6.20;93.60;;;6.13;78.81;98474.00;4974684;28;20054;-80
2020/12/05 07:11:17;;;;;;;31.90;18.38;;;6.10;93.60;;;6.10;78.83;98477.13;4972223;28;20050;-79
2020/12/05 07:13:45;;;;;;;33.00;18.88;;;6.20;93.60;;;6.13;78.38;98476.72;4971979;28;20047;-80
2020/12/05 07:16:20;;;;;;;30.85;17.83;;;6.10;93.50;;;6.14;78.60;98481.91;4974653;28;20143;-80
2020/12/05 07:18:49;;;;;;;29.98;17.23;;;6.20;93.60;;;6.14;78.36;98490.00;4974775;28;20047;-80
2020/12/05 07:21:19;;;;;;;34.55;17.88;;;6.10;93.60;;;6.21;78.41;98498.97;4974828;28;20077;-80
2020/12/05 07:23:47;;;;;;;29.90;17.25;;;6.20;93.50;;;6.21;78.06;98498.13;4975328;28;20582;-83
2020/12/05 07:26:15;;;;;;;31.67;17.95;;;6.20;93.50;;;6.22;78.57;98499.78;4977968;28;20050;-82
2020/12/05 07:28:46;;;;;;;30.67;17.92;;;6.20;93.60;;;6.19;77.98;98498.34;4984594;28;20119;-81
2020/12/05 07:31:13;;;;;;;28.60;16.38;;;6.20;93.60;;;6.21;78.11;98507.06;4986271;28;20111;-81
2020/12/05 07:33:41;;;;;;;29.67;16.85;;;6.20;93.50;;;6.18;78.63;98510.16;4985217;28;20089;-81
2020/12/05 07:36:09;;;;;;;30.63;17.02;;;6.20;93.40;;;6.17;78.07;98508.50;4982805;28;20077;-80
2020/12/05 07:38:39;;;;;;;30.35;18.23;;;6.10;93.50;;;6.13;77.85;98515.38;4976296;28;20081;-80
2020/12/05 07:41:10;;;;;;;30.02;17.88;;;6.10;93.50;;;6.12;77.95;98527.19;4976404;28;20109;-80
2020/12/05 07:43:37;;;;;;;30.73;18.02;;;6.10;93.40;;;6.15;77.65;98534.91;4976111;28;20078;-80
2020/12/05 07:46:06;;;;;;;29.35;16.58;;;6.10;93.20;;;6.13;77.70;98539.69;4982244;28;20043;-81
2020/12/05 07:48:33;;;;;;;27.50;16.38;;;6.10;93.10;;;6.10;77.93;98550.88;4989013;28;20070;-81
2020/12/05 07:51:01;;;;;;;27.60;16.55;;;6.10;93.20;;;6.15;77.95;98552.94;4986660;28;20051;-81
2020/12/05 07:53:33;;;;;;;29.38;17.65;;;6.10;93.30;;;6.13;77.62;98553.19;4982284;28;20053;-81
2020/12/05 07:56:14;;;;;;;29.35;16.52;;;6.10;93.30;;;6.13;77.87;98565.81;4988123;28;20061;-81
2020/12/05 07:58:47;;;;;;;32.33;16.58;;;5.90;93.10;;;6.14;77.65;98571.03;5000809;28;20045;-81
2020/12/05 08:01:39;;;;;;;30.13;16.90;;;6.00;93.10;;;6.12;78.11;98575.81;4999709;28;20506;-81
2020/12/05 08:04:49;;;;;;;28.00;16.52;;;6.00;93.20;;;6.10;78.17;98583.28;4999027;28;20050;-81
2020/12/05 08:07:37;;;;;;;27.98;16.35;;;6.00;93.20;;;6.14;77.85;98589.13;4997434;28;20093;-81
2020/12/05 08:10:12;;;;;;;27.48;16.23;;;6.00;93.10;;;6.13;77.46;98598.25;5001395;28;20050;-81
2020/12/05 08:13:21;;;;;;;27.05;16.17;;;6.00;93.00;;;6.11;77.89;98594.91;4999467;28;20050;-81
2020/12/05 08:15:52;;;;;;;30.98;18.05;;;6.00;93.00;;;6.14;77.71;98611.53;5000565;28;20129;-81
2020/12/05 08:18:21;;;;;;;;;;;6.00;93.20;;;6.16;77.60;98616.75;4997981;28;20065;-81
2020/12/05 08:20:49;;;;;;;38.33;20.70;;;6.00;93.10;;;6.18;77.70;98612.78;4995888;28;19945;-81
2020/12/05 08:23:40;;;;;;;33.58;21.15;;;6.20;93.30;;;6.18;77.45;98626.31;4996763;28;20628;-81
2020/12/05 08:26:09;;;;;;;30.27;17.17;;;6.10;93.20;;;6.17;77.72;98631.91;4982202;28;20121;-80
2020/12/05 08:28:40;;;;;;;28.73;15.10;;;6.10;93.40;;;6.16;78.50;98633.78;4997683;28;20129;-81
2020/12/05 08:31:09;;;;;;;27.38;15.90;;;6.10;93.50;;;6.17;77.79;98638.16;4997175;28;20096;-80
2020/12/05 08:33:43;;;;;;;25.45;15.52;;;6.20;93.50;;;6.19;78.04;98630.69;4997029;28;20050;-81
2020/12/05 08:36:18;;;;;;;27.33;15.55;;;6.20;93.40;;;6.22;77.59;98624.03;4998870;28;20073;-81
2020/12/05 08:38:46;;;;;;;29.67;16.63;;;6.20;93.30;;;6.23;78.37;98626.53;5000502;28;20058;-81
2020/12/05 08:41:13;;;;;;;28.90;16.70;;;6.20;93.30;;;6.26;78.21;98639.66;5000793;28;20057;-81
2020/12/05 08:43:41;;;;;;;30.75;15.15;;;6.20;93.20;;;6.30;78.10;98644.63;5000252;28;20097;-81
2020/12/05 08:46:19;;;;;;;28.42;15.70;;;6.30;93.30;;;6.38;77.33;98649.88;5001595;28;20050;-81
2020/12/05 08:48:46;;;;;;;24.58;15.05;;;6.30;93.20;;;6.38;77.65;98639.06;5002270;28;20085;-81
2020/12/05 08:51:13;;;;;;;25.65;15.25;;;6.30;93.20;;;6.35;77.98;98642.16;4997211;28;20066;-81
2020/12/05 08:53:39;;;;;;;25.02;15.00;;;6.30;93.20;;;6.34;78.01;98632.38;4994114;28;20054;-80
2020/12/05 08:56:06;;;;;;;23.30;13.52;;;6.40;93.30;;;6.35;77.76;98634.06;4992294;28;20053;-80
2020/12/05 08:58:45;;;;;;;20.98;12.57;;;6.40;93.20;;;6.39;77.85;98643.41;4993079;28;20074;-79
2020/12/05 09:01:12;;;;;;;23.02;14.13;;;6.40;92.90;;;6.40;77.62;98637.81;4996965;28;20074;-79
2020/12/05 09:03:40;;;;;;;24.88;13.98;;;6.40;92.80;;;6.47;78.02;98643.22;4993994;28;20046;-80
2020/12/05 09:06:08;;;;;;;25.98;15.23;;;6.40;92.70;;;6.45;77.38;98635.34;4993855;28;20131;-79
2020/12/05 09:08:35;;;;;;;25.73;14.05;;;6.50;92.70;;;6.51;77.27;98655.31;4992379;28;20797;-78
2020/12/05 09:11:02;;;;;;;24.08;13.02;;;6.50;92.70;;;6.50;77.70;98648.22;4961253;28;20169;-79
2020/12/05 09:13:29;;;;;;;26.02;14.43;;;6.50;92.60;;;6.52;77.04;98646.13;4964777;28;20074;-79
2020/12/05 09:16:02;;;;;;;27.48;12.93;;;6.60;92.30;;;6.59;77.09;98656.97;4962999;28;20072;-77
2020/12/05 09:18:41;;;;;;;20.60;12.93;;;6.60;92.00;;;6.61;76.93;98654.91;4953017;28;20043;-77
2020/12/05 09:21:14;;;;;;;18.23;11.55;;;6.60;91.90;;;6.60;76.97;98659.44;4958511;28;20419;-78
2020/12/05 09:23:41;;;;;;;21.90;12.60;;;6.70;91.90;;;6.57;76.27;98662.59;4953903;28;20129;-78
2020/12/05 09:26:08;;;;;;;19.40;10.70;;;6.70;91.70;;;6.59;77.00;98662.38;4954966;28;20047;-77
2020/12/05 09:28:35;;;;;;;17.52;11.07;;;6.80;91.60;;;6.62;76.21;98657.38;4954768;29;20086;-77
2020/12/05 09:31:07;;;;;;;15.88;9.20;;;6.70;91.50;;;6.63;75.66;98663.63;4955937;28;20039;-78
2020/12/05 09:33:36;;;;;;;15.73;9.50;;;6.70;91.20;;;6.62;76.81;98668.19;4974874;28;20078;-78
2020/12/05 09:36:03;;;;;;;14.32;8.75;;;6.80;90.90;;;6.67;76.78;98682.97;4961731;28;20043;-78
2020/12/05 09:38:30;;;;;;;14.60;8.77;;;6.80;91.00;;;6.68;75.40;98690.88;4958280;28;20460;-78
2020/12/05 09:40:58;;;;;;;12.63;7.25;;;6.80;90.70;;;6.67;75.75;98701.91;4974364;28;20443;-78
2020/12/05 09:43:25;;;;;;;13.23;7.65;;;6.90;90.60;;;6.72;76.36;98712.91;4974717;28;20149;-77
2020/12/05 09:45:51;;;;;;;11.65;6.95;;;6.80;90.20;;;6.70;75.41;98701.47;4972878;28;20105;-78
2020/12/05 09:48:19;;;;;;;11.00;6.15;;;6.90;90.00;;;6.71;75.26;98703.16;4974931;28;20491;-78
2020/12/05 09:50:47;;;;;;;10.35;6.05;;;6.90;89.90;;;6.75;74.62;98696.31;4974293;28;20106;-78
2020/12/05 09:53:14;;;;;;;10.48;6.05;;;7.00;89.50;;;6.75;75.26;98699.00;4975265;28;20093;-78
2020/12/05 09:55:48;;;;;;;11.90;6.03;;;7.00;89.10;;;6.82;75.01;98702.56;4974739;28;20157;-78
2020/12/05 09:58:15;;;;;;;13.07;6.05;;;7.10;89.10;;;6.85;75.50;98697.56;4975040;28;20070;-78
2020/12/05 10:00:42;;;;;;;11.45;6.18;;;7.10;89.30;;;6.85;75.19;98688.63;4974178;28;20051;-77
2020/12/05 10:03:08;;;;;;;11.65;6.68;;;7.20;88.70;;;6.82;74.23;98695.28;4974303;28;20117;-78
2020/12/05 10:05:36;;;;;;;10.38;6.22;;;7.20;88.60;;;6.82;74.17;98697.97;4974282;28;20039;-78
2020/12/05 10:08:05;;;;;;;10.95;6.28;;;7.20;88.50;;;6.88;75.19;98706.31;4957344;28;20117;-78
2020/12/05 10:10:32;;;;;;;11.02;5.95;;;7.20;88.60;;;6.90;74.47;98710.47;4955197;29;20109;-78
2020/12/05 10:12:59;;;;;;;11.40;5.90;;;7.20;88.40;;;6.95;75.25;98710.69;4954437;28;20484;-77
2020/12/05 10:15:26;;;;;;;9.63;5.78;;;7.20;88.40;;;6.96;74.13;98696.13;4951757;28;20513;-78
2020/12/05 10:17:53;;;;;;;10.43;5.88;;;7.30;88.10;;;6.98;75.03;98694.03;4953513;29;20234;-77
2020/12/05 10:20:19;;;;;;;10.63;5.15;;;7.30;88.20;;;7.03;74.08;98691.56;4968337;28;20050;-77
2020/12/05 10:22:47;;;;;;;11.32;5.43;;;7.30;88.10;;;7.00;73.89;98686.56;4974143;28;20816;-77
2020/12/05 10:25:14;;;;;;;9.45;5.13;;;7.30;87.80;;;7.03;73.94;98696.13;4973639;28;20097;-77
2020/12/05 10:27:40;;;;;;;8.43;5.25;;;7.30;87.80;;;7.04;73.97;98697.78;4965038;28;20129;-78
2020/12/05 10:30:09;;;;;;;7.93;4.60;;;7.30;87.70;;;7.02;73.96;98703.41;4955697;28;20179;-77
2020/12/05 10:32:37;;;;;;;7.70;4.63;;;7.40;87.10;;;7.00;73.12;98700.06;4956316;28;20150;-78
2020/12/05 10:35:04;;;;;;;10.13;4.80;;;7.40;86.80;;;7.08;74.03;98703.63;4955265;29;20484;-78